Marion, IN

7:45 AM EDT on August 28, 2016 (GMT -0400)
Marion Municipal

Weather History for KMZZ - April, 2013

Change the Weather History Date:

Tuesday, April 2, 2013

  Actual Average (KMIE) Record (KMIE)
Temperature  
Mean Temperature 32 °F 46 °F  
Max Temperature 42 °F 56 °F 81 °F (1963)
Min Temperature 23 °F 36 °F 22 °F (1991)
Degree Days  
Heating Degree Days 32 19  
Month to date heating degree days 38  
Since 1 July heating degree days 5208  
Cooling Degree Days 0 0  
Month to date cooling degree days 0  
Year to date cooling degree days 1  
Moisture  
Dew Point 17 °F    
Average Humidity 56    
Maximum Humidity 85    
Minimum Humidity 29    
Precipitation  
Precipitation 0.00 in 0.13 in 0.90 in (1970)
Month to date precipitation 0.25  
Year to date precipitation 7.74  
Sea Level Pressure  
Sea Level Pressure 30.21 in    
Wind  
Wind Speed 4 mph (NW)    
Max Wind Speed 17 mph    
Max Gust Speed 23 mph    
Visibility 10 miles    
Events      
T = Trace of Precipitation, MM = Missing Value Source: NWS Daily Summary

Daily Weather History Graph

Daily Weather History Graph

Search for Another Location

Airport or City:

Trip Planner

Search our weather history database for the weather conditions in past years. The results will help you decide how hot, cold, wet, or windy it might be!

Date:

Astronomy

Apr. 02, 2013 Rise Set
Actual Time 7:24 AM EDT 8:08 PM EDT
Civil Twilight 6:56 AM EDT 8:36 PM EDT
Nautical Twilight 6:24 AM EDT 9:08 PM EDT
Astronomical Twilight 5:50 AM EDT 9:42 PM EDT
Moon 2:13 AM EDT (4/2) 12:13 PM EDT (4/2)
Length of Visible Light 13h 39m
Length of Day
12h 44m
Waning Gibbous, 56% of the Moon is Illuminated
Apr 2
Waning Gibbous
Apr 3
Last Quarter
Apr 10
New
Apr 18
First Quarter
Apr 25
Full

Hourly Weather History & Observations

Time (EDT) Temp. Windchill Dew Point Humidity Pressure Visibility Wind Dir Wind Speed Gust Speed Precip Events Conditions
12:15 AM 29.3 °F - 19.8 °F 68% 30.15 in 10.0 mi Calm Calm - N/A   Clear
12:35 AM 28.6 °F - 20.8 °F 73% 30.15 in 10.0 mi Calm Calm - N/A   Clear
12:55 AM 28.6 °F - 20.3 °F 71% 30.15 in 10.0 mi Calm Calm - N/A   Clear
1:15 AM 28.4 °F - 19.6 °F 70% 30.15 in 10.0 mi Calm Calm - N/A   Clear
1:35 AM 27.9 °F - 19.6 °F 71% 30.15 in 10.0 mi Calm Calm - N/A   Clear
1:55 AM 26.8 °F - 20.8 °F 78% 30.15 in 10.0 mi Calm Calm - N/A   Clear
2:15 AM 25.7 °F - 21.2 °F 83% 30.15 in 10.0 mi Calm Calm - N/A   Clear
2:35 AM 25.7 °F - 21.6 °F 84% 30.16 in 10.0 mi Calm Calm - N/A   Clear
2:55 AM 25.3 °F - 21.2 °F 84% 30.16 in 10.0 mi Calm Calm - N/A   Clear
3:15 AM 25.7 °F - 20.8 °F 82% 30.15 in 10.0 mi Calm Calm - N/A   Clear
3:35 AM 25.5 °F - 20.5 °F 81% 30.15 in 10.0 mi Calm Calm - N/A   Clear
3:55 AM 25.3 °F - 21.0 °F 84% 30.15 in 10.0 mi Calm Calm - N/A   Clear
4:15 AM 25.0 °F 20.7 °F 20.8 °F 84% 30.15 in 10.0 mi West 3.5 mph - N/A   Clear
4:35 AM 24.8 °F 19.1 °F 20.8 °F 85% 30.16 in 10.0 mi West 4.6 mph - N/A   Clear
4:55 AM 25.2 °F 19.5 °F 20.5 °F 82% 30.16 in 10.0 mi WNW 4.6 mph - N/A   Clear
5:15 AM 25.3 °F 19.7 °F 19.6 °F 79% 30.16 in 10.0 mi WNW 4.6 mph - N/A   Clear
5:35 AM 25.2 °F 19.5 °F 19.8 °F 80% 30.17 in 10.0 mi West 4.6 mph - N/A   Clear
5:55 AM 25.0 °F 20.7 °F 19.6 °F 80% 30.18 in 10.0 mi NW 3.5 mph - N/A   Clear
6:15 AM 24.8 °F 19.1 °F 18.7 °F 78% 30.19 in 10.0 mi WNW 4.6 mph - N/A   Clear
6:35 AM 25.0 °F 19.3 °F 18.5 °F 76% 30.19 in 10.0 mi WNW 4.6 mph - N/A   Clear
6:55 AM 24.8 °F 19.1 °F 18.5 °F 77% 30.20 in 10.0 mi WNW 4.6 mph - N/A   Clear
7:15 AM 24.3 °F 19.9 °F 18.5 °F 79% 30.21 in 10.0 mi WNW 3.5 mph - N/A   Clear
7:35 AM 23.9 °F 19.5 °F 18.3 °F 79% 30.21 in 10.0 mi West 3.5 mph - N/A   Clear
7:55 AM 24.1 °F 18.2 °F 19.0 °F 81% 30.22 in 10.0 mi West 4.6 mph - N/A   Clear
8:15 AM 25.0 °F 18.1 °F 19.4 °F 79% 30.22 in 10.0 mi WNW 5.8 mph - N/A   Clear
8:35 AM 26.2 °F 20.7 °F 19.2 °F 75% 30.24 in 10.0 mi WNW 4.6 mph - N/A   Clear
8:55 AM 27.3 °F 19.9 °F 19.4 °F 72% 30.25 in 10.0 mi WNW 6.9 mph - N/A   Clear
9:15 AM 28.6 °F 22.4 °F 19.6 °F 69% 30.25 in 10.0 mi NW 5.8 mph - N/A   Clear
9:35 AM 29.7 °F 22.8 °F 19.9 °F 67% 30.25 in 10.0 mi WNW 6.9 mph - N/A   Clear
9:55 AM 30.9 °F 23.5 °F 20.1 °F 64% 30.25 in 10.0 mi WNW 8.1 mph - N/A   Clear
10:35 AM 32.2 °F 25.0 °F 18.9 °F 58% 30.26 in 10.0 mi NNW 8.1 mph - N/A   Clear
10:55 AM 32.7 °F 26.4 °F 17.4 °F 53% 30.26 in 10.0 mi NNW 6.9 mph - N/A   Clear
11:15 AM 33.1 °F 27.7 °F 15.6 °F 49% 30.27 in 10.0 mi NNW 5.8 mph - N/A   Scattered Clouds
11:35 AM 33.6 °F 27.5 °F 15.6 °F 48% 30.27 in 10.0 mi West 6.9 mph - N/A   Scattered Clouds
11:55 AM 34.5 °F 30.4 °F 15.6 °F 46% 30.27 in 10.0 mi WNW 4.6 mph - N/A   Scattered Clouds
12:15 PM 34.7 °F 26.9 °F 14.9 °F 44% 30.27 in 10.0 mi WNW 10.4 mph - N/A   Scattered Clouds
12:35 PM 35.4 °F 26.8 °F 15.3 °F 44% 30.26 in 10.0 mi WNW 12.7 mph 17.3 mph N/A   Scattered Clouds
12:55 PM 36.0 °F 31.1 °F 14.7 °F 42% 30.26 in 10.0 mi WNW 5.8 mph 17.3 mph N/A   Mostly Cloudy
1:15 PM 36.7 °F 28.4 °F 15.4 °F 42% 30.25 in 10.0 mi West 12.7 mph 19.6 mph N/A   Scattered Clouds
1:35 PM 37.4 °F 30.3 °F 14.9 °F 40% 30.24 in 10.0 mi NW 10.4 mph 17.3 mph N/A   Scattered Clouds
1:55 PM 37.8 °F 31.3 °F 15.3 °F 40% 30.24 in 10.0 mi WNW 9.2 mph 20.7 mph N/A   Scattered Clouds
2:15 PM 38.1 °F 35.7 °F 14.7 °F 39% 30.24 in 10.0 mi North 3.5 mph 19.6 mph N/A   Scattered Clouds
2:35 PM 38.7 °F 31.4 °F 16.0 °F 40% 30.23 in 10.0 mi WNW 11.5 mph 19.6 mph N/A   Scattered Clouds
2:55 PM 39.6 °F 32.5 °F 14.9 °F 37% 30.22 in 10.0 mi NW 11.5 mph 18.4 mph N/A   Scattered Clouds
3:15 PM 39.9 °F 33.4 °F 15.6 °F 37% 30.22 in 10.0 mi WNW 10.4 mph 21.9 mph N/A   Scattered Clouds
3:35 PM 40.5 °F 35.1 °F 16.0 °F 37% 30.21 in 10.0 mi NW 8.1 mph 23.0 mph N/A   Scattered Clouds
3:55 PM 40.6 °F 32.0 °F 15.1 °F 35% 30.21 in 10.0 mi WNW 17.3 mph - N/A   Scattered Clouds
4:15 PM 41.0 °F 33.5 °F 14.7 °F 34% 30.20 in 10.0 mi West 13.8 mph 20.7 mph N/A   Scattered Clouds
4:35 PM 41.5 °F 33.8 °F 14.2 °F 33% 30.20 in 10.0 mi WNW 15.0 mph 23.0 mph N/A   Scattered Clouds
4:55 PM 41.7 °F 34.1 °F 13.6 °F 32% 30.20 in 10.0 mi NW 15.0 mph - N/A   Clear
5:15 PM 41.7 °F 34.8 °F 12.9 °F 31% 30.20 in 10.0 mi NW 12.7 mph 18.4 mph N/A   Clear
5:35 PM 41.9 °F 35.9 °F 12.7 °F 31% 30.20 in 10.0 mi West 10.4 mph 17.3 mph N/A   Scattered Clouds
5:55 PM 41.5 °F 34.6 °F 12.7 °F 31% 30.20 in 10.0 mi WNW 12.7 mph - N/A   Scattered Clouds
6:15 PM 41.4 °F 34.7 °F 12.6 °F 31% 30.20 in 10.0 mi WNW 11.5 mph 19.6 mph N/A   Clear
6:35 PM 42.3 °F 34.4 °F 12.2 °F 29% 30.20 in 10.0 mi West 16.1 mph 19.6 mph N/A   Scattered Clouds
6:55 PM 41.4 °F 34.3 °F 10.8 °F 29% 30.21 in 10.0 mi WNW 12.7 mph - N/A   Scattered Clouds
7:15 PM 40.3 °F 34.4 °F 11.1 °F 30% 30.21 in 10.0 mi WNW 9.2 mph - N/A   Scattered Clouds
7:35 PM 40.1 °F 33.2 °F 12.0 °F 32% 30.21 in 10.0 mi WNW 11.5 mph - N/A   Mostly Cloudy
7:55 PM 39.9 °F 33.9 °F 13.5 °F 34% 30.21 in 10.0 mi WNW 9.2 mph - N/A   Mostly Cloudy
8:15 PM 38.8 °F 33.8 °F 14.2 °F 37% 30.21 in 10.0 mi WNW 6.9 mph - N/A   Mostly Cloudy
8:35 PM 37.9 °F 32.1 °F 14.2 °F 38% 30.22 in 10.0 mi NNE 8.1 mph 16.1 mph N/A   Mostly Cloudy
8:55 PM 36.3 °F 30.8 °F 14.7 °F 41% 30.23 in 10.0 mi NNE 6.9 mph - N/A   Scattered Clouds
9:15 PM 35.1 °F 30.1 °F 15.1 °F 44% 30.24 in 10.0 mi NNE 5.8 mph - N/A   Clear
9:35 PM 34.2 °F 28.2 °F 14.9 °F 45% 30.24 in 10.0 mi NNE 6.9 mph - N/A   Clear
9:55 PM 34.0 °F 28.8 °F 12.9 °F 42% 30.25 in 10.0 mi NNE 5.8 mph - N/A   Clear
10:15 PM 33.4 °F 30.4 °F 12.9 °F 43% 30.26 in 10.0 mi NNE 3.5 mph - N/A   Clear
10:35 PM 32.2 °F 28.9 °F 14.5 °F 48% 30.27 in 10.0 mi NNE 3.5 mph - N/A   Clear
10:55 PM 32.0 °F - 13.1 °F 46% 30.28 in 10.0 mi Calm Calm - N/A   Clear
11:15 PM 31.5 °F - 14.0 °F 49% 30.28 in 10.0 mi Calm Calm - N/A   Clear
11:35 PM 31.1 °F - 14.2 °F 50% 30.28 in 10.0 mi Calm Calm - N/A   Clear
11:55 PM 31.1 °F - 13.8 °F 49% 30.28 in 10.0 mi Calm Calm - N/A   Clear